createdAt,value
2023-05-04T00:02:18.821Z,11.83
2023-05-04T00:04:46.897Z,11.10
2023-05-04T00:07:14.759Z,10.57
2023-05-04T00:09:42.659Z,10.40
2023-05-04T00:12:10.657Z,10.70
2023-05-04T00:14:38.665Z,10.57
2023-05-04T00:17:06.618Z,9.90
2023-05-04T00:19:35.976Z,10.80
2023-05-04T00:22:04.222Z,9.73
2023-05-04T00:24:32.156Z,9.13
2023-05-04T00:27:00.012Z,9.90
2023-05-04T00:29:27.935Z,10.43
2023-05-04T00:31:56.153Z,10.13
2023-05-04T00:34:24.536Z,11.27
2023-05-04T00:36:53.803Z,9.70
2023-05-04T00:39:22.016Z,9.63
2023-05-04T00:41:50.626Z,10.43
2023-05-04T00:44:18.568Z,10.20
2023-05-04T00:46:46.850Z,9.30
2023-05-04T00:49:14.779Z,9.57
2023-05-04T00:51:42.783Z,8.97
2023-05-04T00:54:12.767Z,10.33
2023-05-04T00:56:43.205Z,9.63
2023-05-04T00:59:11.239Z,8.43
2023-05-04T01:01:39.100Z,8.40
2023-05-04T01:04:07.546Z,9.43
2023-05-04T01:06:42.972Z,11.13
2023-05-04T01:09:20.069Z,10.27
2023-05-04T01:11:54.673Z,8.90
2023-05-04T01:14:23.399Z,8.80
2023-05-04T01:16:55.985Z,9.10
2023-05-04T01:19:24.141Z,9.53
2023-05-04T01:21:53.402Z,9.30
2023-05-04T01:24:22.424Z,9.63
2023-05-04T01:26:55.843Z,9.40
2023-05-04T01:29:28.819Z,9.37
2023-05-04T01:31:58.017Z,9.27
2023-05-04T01:34:26.462Z,9.00
2023-05-04T01:36:57.677Z,9.07
2023-05-04T01:39:25.556Z,8.80
2023-05-04T01:41:53.390Z,9.10
2023-05-04T01:44:21.311Z,8.70
2023-05-04T01:46:49.150Z,9.43
2023-05-04T01:49:17.006Z,8.43
2023-05-04T01:51:46.716Z,8.37
2023-05-04T01:54:16.199Z,8.30
2023-05-04T01:56:44.140Z,8.33
2023-05-04T01:59:13.102Z,8.60
2023-05-04T02:01:41.798Z,8.33
2023-05-04T02:04:11.140Z,8.37
2023-05-04T02:06:40.595Z,7.77
2023-05-04T02:09:08.575Z,8.10
2023-05-04T02:11:37.880Z,8.70
2023-05-04T02:14:05.870Z,8.77
2023-05-04T02:16:33.891Z,8.40
2023-05-04T02:19:01.813Z,8.33
2023-05-04T02:21:30.252Z,7.80
2023-05-04T02:23:59.176Z,8.57
2023-05-04T02:26:27.082Z,8.83
2023-05-04T02:28:56.510Z,7.80
2023-05-04T02:31:25.058Z,8.60
2023-05-04T02:33:53.614Z,8.43
2023-05-04T02:36:21.641Z,9.23
2023-05-04T02:38:49.934Z,8.83
2023-05-04T02:41:17.803Z,9.30
2023-05-04T02:43:45.979Z,9.53
2023-05-04T02:46:15.318Z,11.00
2023-05-04T02:48:43.237Z,9.80
2023-05-04T02:51:11.418Z,9.87
2023-05-04T02:53:39.326Z,9.97
2023-05-04T02:56:08.546Z,9.63
2023-05-04T02:58:36.551Z,9.30
2023-05-04T03:01:04.540Z,9.40
2023-05-04T03:03:33.799Z,9.20
2023-05-04T03:06:01.705Z,8.90
2023-05-04T03:08:30.249Z,9.00
2023-05-04T03:10:58.077Z,9.10
2023-05-04T03:13:25.982Z,8.83
2023-05-04T03:15:53.916Z,9.57
2023-05-04T03:18:21.917Z,8.77
2023-05-04T03:20:52.408Z,9.03
2023-05-04T03:23:22.464Z,9.00
2023-05-04T03:25:50.666Z,9.40
2023-05-04T03:28:18.689Z,8.57
2023-05-04T03:30:46.624Z,8.47
2023-05-04T03:33:15.462Z,8.53
2023-05-04T03:35:43.801Z,9.37
2023-05-04T03:38:13.665Z,8.60
2023-05-04T03:40:41.880Z,10.43
2023-05-04T03:43:09.848Z,8.90
2023-05-04T03:45:37.872Z,8.27
2023-05-04T03:48:05.863Z,8.50
2023-05-04T03:50:33.792Z,8.07
2023-05-04T03:53:01.663Z,8.27
2023-05-04T03:55:31.625Z,9.40
2023-05-04T03:57:59.546Z,9.07
2023-05-04T04:00:28.231Z,6.70
2023-05-04T04:03:05.490Z,8.73
2023-05-04T04:05:34.273Z,8.90
2023-05-04T04:08:02.266Z,10.03
2023-05-04T04:10:31.857Z,8.37
2023-05-04T04:12:59.836Z,9.17
2023-05-04T04:15:27.787Z,9.57
2023-05-04T04:17:55.675Z,9.17
2023-05-04T04:20:23.652Z,10.27
2023-05-04T04:22:51.859Z,10.03
2023-05-04T04:25:19.925Z,9.00
2023-05-04T04:27:49.168Z,8.50
2023-05-04T04:30:17.077Z,9.53
2023-05-04T04:32:45.819Z,9.60
2023-05-04T04:35:14.335Z,9.40
2023-05-04T04:37:42.618Z,9.30
2023-05-04T04:40:11.475Z,10.13
2023-05-04T04:42:39.309Z,9.90
2023-05-04T04:45:09.614Z,10.00
2023-05-04T04:47:37.742Z,9.47
2023-05-04T04:50:06.902Z,10.27
2023-05-04T04:52:35.357Z,9.57
2023-05-04T04:55:04.231Z,9.57
2023-05-04T04:57:32.202Z,9.27
2023-05-04T05:00:00.854Z,8.80
2023-05-04T05:02:30.151Z,9.80
2023-05-04T05:04:58.358Z,10.40
2023-05-04T05:07:26.351Z,9.60
2023-05-04T05:09:54.267Z,9.60
2023-05-04T05:12:22.208Z,8.80
2023-05-04T05:14:50.866Z,9.50
2023-05-04T05:17:19.171Z,8.93
2023-05-04T05:19:49.235Z,9.57
2023-05-04T05:22:17.428Z,10.00
2023-05-04T05:24:45.301Z,9.50
2023-05-04T05:27:13.102Z,9.03
2023-05-04T05:29:41.869Z,8.73
2023-05-04T05:32:09.818Z,8.20
2023-05-04T05:34:38.980Z,8.87
2023-05-04T05:37:08.167Z,8.87
2023-05-04T05:39:36.895Z,10.40
2023-05-04T05:42:05.973Z,8.17
2023-05-04T05:44:37.310Z,8.13
2023-05-04T05:47:05.876Z,8.30
2023-05-04T05:49:33.907Z,7.23
2023-05-04T05:52:01.898Z,7.90
2023-05-04T05:54:32.320Z,7.87
2023-05-04T05:57:01.063Z,7.93
2023-05-04T05:59:29.060Z,6.43
2023-05-04T06:01:56.888Z,7.30
2023-05-04T06:04:24.842Z,7.10
2023-05-04T06:06:52.796Z,8.97
2023-05-04T06:09:21.134Z,8.43
2023-05-04T06:11:50.402Z,7.33
2023-05-04T06:14:18.327Z,7.50
2023-05-04T06:16:46.298Z,6.80
2023-05-04T06:19:14.644Z,7.83
2023-05-04T06:21:42.441Z,6.93
2023-05-04T06:24:10.413Z,6.97
2023-05-04T06:26:38.304Z,7.10
2023-05-04T06:29:07.511Z,7.40
2023-05-04T06:31:35.622Z,6.53
2023-05-04T06:34:04.117Z,7.33
2023-05-04T06:36:32.183Z,6.80
2023-05-04T06:39:00.123Z,6.70
2023-05-04T06:41:28.075Z,6.77
2023-05-04T06:43:58.786Z,8.53
2023-05-04T06:46:28.308Z,7.00
2023-05-04T06:48:56.187Z,7.37
2023-05-04T06:51:23.984Z,6.40
2023-05-04T06:53:51.803Z,8.97
2023-05-04T06:56:19.665Z,6.40
2023-05-04T06:58:47.543Z,7.40
2023-05-04T07:01:16.938Z,6.00
2023-05-04T07:03:48.007Z,6.30
2023-05-04T07:06:15.938Z,7.23
2023-05-04T07:08:44.095Z,6.50
2023-05-04T07:11:11.996Z,7.70
2023-05-04T07:13:39.954Z,7.00
2023-05-04T07:16:08.669Z,7.93
2023-05-04T07:18:38.795Z,7.30
2023-05-04T07:21:27.026Z,7.23
2023-05-04T07:23:56.050Z,6.30
2023-05-04T07:26:24.253Z,6.70
2023-05-04T07:28:52.190Z,6.73
2023-05-04T07:31:20.091Z,6.57
2023-05-04T07:33:48.784Z,6.90
2023-05-04T07:36:18.060Z,6.97
2023-05-04T07:38:46.086Z,7.40
2023-05-04T07:41:13.997Z,7.20
2023-05-04T07:43:41.855Z,7.03
2023-05-04T07:46:10.106Z,7.33
2023-05-04T07:48:38.065Z,6.70
2023-05-04T07:51:05.959Z,6.23
2023-05-04T07:53:35.238Z,6.90
2023-05-04T07:56:09.502Z,5.93
2023-05-04T07:58:37.515Z,6.97
2023-05-04T08:01:05.592Z,7.00
2023-05-04T08:03:33.555Z,6.60
2023-05-04T08:06:01.979Z,6.63
2023-05-04T08:08:29.925Z,6.70
2023-05-04T08:11:11.749Z,7.00
2023-05-04T08:13:48.890Z,7.90
2023-05-04T08:16:16.981Z,6.80
2023-05-04T08:18:44.927Z,7.13
2023-05-04T08:21:13.358Z,6.77
2023-05-04T08:23:42.165Z,7.03
2023-05-04T08:26:11.412Z,6.60
2023-05-04T08:28:40.622Z,6.50
2023-05-04T08:31:09.099Z,7.03
2023-05-04T08:33:36.927Z,6.50
2023-05-04T08:36:05.653Z,5.70
2023-05-04T08:38:33.651Z,5.17
2023-05-04T08:41:03.676Z,6.63
2023-05-04T08:43:35.659Z,6.97
2023-05-04T08:46:04.808Z,5.60
2023-05-04T08:48:34.504Z,7.50
2023-05-04T08:51:04.255Z,6.30
2023-05-04T08:53:32.710Z,5.20
2023-05-04T08:56:04.567Z,5.13
2023-05-04T08:58:37.990Z,7.17
2023-05-04T09:01:08.231Z,5.20
2023-05-04T09:03:36.716Z,4.70
2023-05-04T09:06:05.264Z,5.43
2023-05-04T09:08:33.262Z,6.13
2023-05-04T09:11:01.420Z,6.07
2023-05-04T09:13:29.310Z,5.70
2023-05-04T09:15:59.655Z,5.10
2023-05-04T09:18:37.715Z,6.90
2023-05-04T09:21:05.591Z,5.10
2023-05-04T09:23:34.409Z,4.87
2023-05-04T09:26:02.537Z,5.40
2023-05-04T09:28:38.616Z,5.30
2023-05-04T09:31:08.552Z,5.50
2023-05-04T09:33:37.059Z,4.90
2023-05-04T09:36:15.519Z,4.70
2023-05-04T09:38:43.592Z,5.13
2023-05-04T09:41:11.730Z,4.60
2023-05-04T09:43:40.711Z,5.60
2023-05-04T09:46:17.311Z,5.83
2023-05-04T09:48:52.392Z,7.43
2023-05-04T09:51:22.408Z,6.30
2023-05-04T09:53:51.815Z,7.50
2023-05-04T09:56:30.807Z,4.80
2023-05-04T09:58:59.681Z,5.00
2023-05-04T10:01:30.414Z,5.40
2023-05-04T10:03:58.624Z,7.70
2023-05-04T10:06:29.419Z,5.33
2023-05-04T10:08:57.730Z,5.10
2023-05-04T10:11:27.216Z,4.53
2023-05-04T10:13:56.754Z,4.30
2023-05-04T10:16:41.943Z,4.67
2023-05-04T10:19:30.075Z,4.40
2023-05-04T10:22:13.176Z,6.30
2023-05-04T10:25:09.107Z,6.63
2023-05-04T10:27:52.644Z,5.10
2023-05-04T10:30:21.046Z,5.10
2023-05-04T10:32:57.350Z,4.80
2023-05-04T10:35:25.858Z,5.20
2023-05-04T10:37:55.141Z,5.27
2023-05-04T10:40:35.591Z,5.80
2023-05-04T10:43:03.660Z,5.23
2023-05-04T10:45:38.759Z,4.73
2023-05-04T10:48:09.154Z,5.40
2023-05-04T10:50:44.628Z,4.60
2023-05-04T10:53:13.394Z,4.57
2023-05-04T10:55:42.672Z,4.47
2023-05-04T10:58:13.671Z,4.10
2023-05-04T11:00:43.055Z,4.33
2023-05-04T11:03:12.807Z,4.70
2023-05-04T11:05:42.195Z,4.20
2023-05-04T11:08:17.642Z,4.20
2023-05-04T11:10:46.942Z,4.30
2023-05-04T11:13:16.216Z,3.93
2023-05-04T11:15:48.544Z,4.03
2023-05-04T11:18:27.116Z,3.53
2023-05-04T11:20:56.032Z,4.10
2023-05-04T11:23:24.473Z,4.27
2023-05-04T11:25:52.676Z,5.40
2023-05-04T11:28:20.584Z,3.70
2023-05-04T11:30:49.101Z,4.00
2023-05-04T11:33:19.312Z,4.07
2023-05-04T11:35:47.497Z,4.53
2023-05-04T11:38:20.136Z,4.07
2023-05-04T11:40:49.786Z,3.93
2023-05-04T11:43:18.557Z,4.23
2023-05-04T11:45:49.725Z,3.70
2023-05-04T11:48:19.171Z,4.20
2023-05-04T11:50:48.405Z,3.90
2023-05-04T11:53:21.566Z,3.70
2023-05-04T11:55:49.534Z,3.90
2023-05-04T11:58:25.265Z,3.70
2023-05-04T12:00:57.024Z,3.70
2023-05-04T12:03:43.161Z,3.20
2023-05-04T12:06:16.505Z,3.77
2023-05-04T12:08:44.397Z,3.23
2023-05-04T12:11:14.633Z,3.53
2023-05-04T12:13:43.566Z,3.90
2023-05-04T12:16:13.056Z,3.30
2023-05-04T12:18:44.360Z,3.57
2023-05-04T12:21:13.894Z,4.00
2023-05-04T12:23:42.931Z,3.30
2023-05-04T12:26:12.330Z,3.20
2023-05-04T12:28:42.612Z,3.80
2023-05-04T12:31:10.604Z,4.03
2023-05-04T12:33:38.508Z,3.50
2023-05-04T12:36:09.142Z,3.43
2023-05-04T12:38:37.579Z,3.53
2023-05-04T12:41:10.727Z,3.27
2023-05-04T12:43:38.957Z,3.43
2023-05-04T12:46:07.356Z,3.73
2023-05-04T12:48:35.470Z,3.37
2023-05-04T12:51:04.085Z,2.77
2023-05-04T12:53:33.480Z,2.90
2023-05-04T12:56:03.648Z,2.73
2023-05-04T12:58:32.129Z,2.93
2023-05-04T13:01:00.155Z,2.70
2023-05-04T13:03:28.247Z,2.70
2023-05-04T13:05:56.351Z,3.70
2023-05-04T13:08:24.319Z,3.10
2023-05-04T13:10:53.725Z,3.50
2023-05-04T13:13:26.336Z,2.97
2023-05-04T13:15:54.354Z,3.30
2023-05-04T13:18:26.806Z,3.97
2023-05-04T13:20:54.745Z,2.70
2023-05-04T13:23:22.694Z,2.90
2023-05-04T13:25:51.150Z,2.90
2023-05-04T13:28:20.496Z,3.13
2023-05-04T13:30:48.619Z,3.03
2023-05-04T13:33:28.039Z,4.17
2023-05-04T13:35:58.326Z,3.30
2023-05-04T13:38:26.898Z,2.97
2023-05-04T13:40:55.167Z,3.10
2023-05-04T13:43:24.382Z,3.03
2023-05-04T13:45:52.590Z,3.90
2023-05-04T13:48:20.581Z,3.50
2023-05-04T13:50:48.528Z,3.73
2023-05-04T13:53:16.482Z,3.47
2023-05-04T13:55:44.955Z,3.83
2023-05-04T13:58:12.886Z,3.47
2023-05-04T14:00:43.242Z,3.50
2023-05-04T14:03:11.554Z,3.20
2023-05-04T14:05:39.514Z,3.40
2023-05-04T14:08:07.632Z,3.70
2023-05-04T14:10:37.555Z,4.07
2023-05-04T14:13:05.846Z,3.97
2023-05-04T14:15:33.755Z,4.10
2023-05-04T14:18:03.452Z,4.43
2023-05-04T14:20:31.408Z,3.90
2023-05-04T14:22:59.350Z,4.20
2023-05-04T14:25:27.356Z,6.80
2023-05-04T14:27:55.199Z,3.50
2023-05-04T14:30:23.213Z,4.10
2023-05-04T14:32:54.049Z,4.23
2023-05-04T14:35:23.617Z,3.90
2023-05-04T14:37:51.517Z,3.47
2023-05-04T14:40:19.441Z,4.60
2023-05-04T14:42:48.396Z,3.97
2023-05-04T14:45:17.222Z,3.60
2023-05-04T14:47:45.584Z,3.57
2023-05-04T14:50:13.771Z,4.17
2023-05-04T14:52:43.028Z,3.83
2023-05-04T14:55:11.551Z,3.67
2023-05-04T14:57:39.511Z,3.80
2023-05-04T15:00:11.270Z,4.20
2023-05-04T15:02:39.782Z,4.10
2023-05-04T15:05:10.306Z,3.97
2023-05-04T15:07:38.206Z,3.83
2023-05-04T15:10:10.462Z,3.83
2023-05-04T15:12:39.510Z,4.53
2023-05-04T15:15:08.613Z,4.10
2023-05-04T15:17:36.687Z,3.83
2023-05-04T15:20:05.603Z,3.83
2023-05-04T15:22:33.818Z,3.40
2023-05-04T15:25:01.954Z,3.73
2023-05-04T15:27:31.156Z,5.43
2023-05-04T15:29:59.272Z,4.83
2023-05-04T15:32:27.266Z,3.80
2023-05-04T15:35:04.809Z,4.20
2023-05-04T15:37:34.130Z,4.17
2023-05-04T15:40:02.784Z,3.70
2023-05-04T15:42:32.176Z,3.67
2023-05-04T15:45:00.482Z,3.83
2023-05-04T15:47:28.448Z,4.13
2023-05-04T15:49:56.349Z,3.97
2023-05-04T15:52:24.860Z,4.07
2023-05-04T15:54:52.809Z,3.63
2023-05-04T15:57:20.626Z,3.83
2023-05-04T15:59:50.379Z,4.03
2023-05-04T16:02:18.257Z,3.40
2023-05-04T16:04:46.589Z,3.83
2023-05-04T16:07:14.709Z,3.70
2023-05-04T16:09:42.691Z,3.67
2023-05-04T16:12:10.846Z,3.60
2023-05-04T16:14:38.654Z,3.60
2023-05-04T16:17:08.281Z,3.60
2023-05-04T16:19:36.646Z,3.67
2023-05-04T16:22:04.594Z,3.87
2023-05-04T16:24:32.590Z,3.87
2023-05-04T16:27:00.640Z,3.77
2023-05-04T16:29:28.567Z,3.77
2023-05-04T16:31:56.459Z,3.90
2023-05-04T16:34:25.770Z,3.77
2023-05-04T16:36:53.686Z,3.80
2023-05-04T16:39:21.650Z,5.20
2023-05-04T16:41:49.491Z,4.37
2023-05-04T16:44:17.354Z,4.10
2023-05-04T16:46:45.358Z,3.97
2023-05-04T16:49:14.738Z,4.30
2023-05-04T16:51:44.423Z,4.00
2023-05-04T16:54:12.505Z,4.63
2023-05-04T16:56:40.395Z,3.97
2023-05-04T16:59:08.306Z,4.23
2023-05-04T17:01:36.305Z,3.60
2023-05-04T17:04:04.403Z,4.10
2023-05-04T17:06:32.477Z,4.37
2023-05-04T17:09:01.967Z,4.10
2023-05-04T17:11:29.904Z,4.60
2023-05-04T17:13:57.878Z,4.80
2023-05-04T17:16:25.845Z,5.00
2023-05-04T17:18:53.770Z,4.80
2023-05-04T17:21:21.723Z,4.10
2023-05-04T17:23:49.625Z,4.87
2023-05-04T17:26:18.932Z,5.43
2023-05-04T17:28:48.253Z,5.40
2023-05-04T17:31:16.195Z,4.97
2023-05-04T17:33:44.112Z,4.60
2023-05-04T17:36:13.090Z,6.60
2023-05-04T17:38:41.635Z,5.67
2023-05-04T17:41:10.850Z,5.87
2023-05-04T17:43:40.289Z,6.17
2023-05-04T17:46:08.328Z,5.43
2023-05-04T17:48:36.824Z,6.17
2023-05-04T17:51:08.893Z,6.43
2023-05-04T17:53:36.928Z,6.30
2023-05-04T17:56:05.297Z,6.57
2023-05-04T17:58:33.197Z,7.03
2023-05-04T18:01:03.424Z,7.83
2023-05-04T18:03:31.464Z,8.37
2023-05-04T18:05:59.405Z,7.07
2023-05-04T18:08:27.381Z,6.70
2023-05-04T18:10:55.304Z,8.00
2023-05-04T18:13:23.306Z,6.60
2023-05-04T18:15:51.525Z,8.60
2023-05-04T18:18:20.921Z,10.97
2023-05-04T18:20:48.900Z,7.97
2023-05-04T18:23:16.840Z,8.20
2023-05-04T18:25:44.813Z,8.17
2023-05-04T18:28:12.670Z,7.97
2023-05-04T18:30:40.655Z,8.00
2023-05-04T18:33:08.799Z,7.60
2023-05-04T18:35:38.191Z,8.23
2023-05-04T18:38:06.091Z,8.07
2023-05-04T18:40:34.054Z,7.77
2023-05-04T18:43:02.301Z,6.97
2023-05-04T18:45:30.290Z,8.87
2023-05-04T18:47:58.441Z,7.90
2023-05-04T18:50:28.608Z,8.50
2023-05-04T18:52:57.910Z,8.20
2023-05-04T18:55:26.834Z,8.17
2023-05-04T18:57:57.316Z,7.93
2023-05-04T19:00:25.300Z,9.10
2023-05-04T19:02:53.170Z,9.77
2023-05-04T19:05:21.204Z,6.87
2023-05-04T19:07:49.133Z,8.50
2023-05-04T19:10:18.428Z,7.63
2023-05-04T19:12:46.564Z,7.50
2023-05-04T19:15:14.751Z,9.07
2023-05-04T19:17:42.738Z,9.20
2023-05-04T19:20:11.234Z,7.63
2023-05-04T19:22:39.148Z,7.20
2023-05-04T19:25:07.875Z,7.50
2023-05-04T19:27:37.196Z,7.80
2023-05-04T19:30:05.853Z,7.13
2023-05-04T19:32:33.865Z,7.93
2023-05-04T19:35:01.864Z,12.30
2023-05-04T19:37:29.687Z,30.60
2023-05-04T19:39:57.811Z,16.73
2023-05-04T19:42:26.006Z,10.20
2023-05-04T19:44:55.372Z,8.90
2023-05-04T19:47:23.410Z,9.17
2023-05-04T19:49:51.356Z,9.43
2023-05-04T19:52:19.300Z,9.23
2023-05-04T19:54:48.460Z,8.40
2023-05-04T19:57:16.483Z,9.17
2023-05-04T19:59:46.823Z,9.07
2023-05-04T20:02:16.615Z,7.67
2023-05-04T20:04:44.613Z,8.20
2023-05-04T20:07:12.953Z,7.80
2023-05-04T20:09:40.861Z,8.90
2023-05-04T20:12:08.805Z,9.67
2023-05-04T20:14:36.754Z,8.13
2023-05-04T20:17:04.821Z,9.53
2023-05-04T20:19:34.114Z,8.20
2023-05-04T20:22:01.970Z,8.40
2023-05-04T20:24:30.018Z,7.63
2023-05-04T20:26:57.937Z,7.87
2023-05-04T20:29:25.900Z,8.77
2023-05-04T20:31:53.850Z,8.07
2023-05-04T20:34:21.824Z,8.33
2023-05-04T20:36:51.408Z,8.50
2023-05-04T20:39:19.993Z,8.00
2023-05-04T20:41:49.665Z,8.50
2023-05-04T20:44:17.590Z,8.70
2023-05-04T20:46:46.143Z,8.53
2023-05-04T20:49:14.935Z,7.90
2023-05-04T20:51:43.159Z,7.90
2023-05-04T20:54:12.801Z,8.07
2023-05-04T20:56:40.800Z,8.60
2023-05-04T20:59:08.890Z,8.10
2023-05-04T21:01:36.893Z,8.10
2023-05-04T21:04:05.333Z,7.73
2023-05-04T21:06:33.154Z,8.27
2023-05-04T21:09:01.957Z,9.27
2023-05-04T21:11:31.250Z,8.27
2023-05-04T21:13:59.314Z,7.83
2023-05-04T21:16:27.329Z,7.80
2023-05-04T21:18:55.246Z,7.10
2023-05-04T21:21:23.143Z,7.97
2023-05-04T21:23:51.025Z,7.43
2023-05-04T21:26:18.845Z,8.10
2023-05-04T21:28:48.022Z,8.10
2023-05-04T21:31:15.869Z,7.70
2023-05-04T21:33:43.755Z,7.37
2023-05-04T21:36:13.303Z,7.47
2023-05-04T21:38:41.420Z,7.87
2023-05-04T21:41:13.463Z,7.70
2023-05-04T21:43:41.693Z,6.80
2023-05-04T21:46:12.076Z,7.27
2023-05-04T21:48:40.743Z,6.60
2023-05-04T21:51:08.605Z,6.80
2023-05-04T21:53:36.487Z,7.57
2023-05-04T21:56:08.718Z,7.30
2023-05-04T21:58:39.419Z,7.63
2023-05-04T22:01:07.912Z,6.63
2023-05-04T22:03:37.311Z,7.67
2023-05-04T22:06:06.510Z,7.47
2023-05-04T22:08:34.500Z,6.73
2023-05-04T22:11:02.632Z,7.17
2023-05-04T22:13:30.549Z,6.40
2023-05-04T22:15:58.560Z,7.73
2023-05-04T22:18:26.489Z,7.00
2023-05-04T22:20:55.702Z,7.60
2023-05-04T22:23:23.759Z,7.70
2023-05-04T22:25:51.733Z,6.77
2023-05-04T22:28:19.621Z,6.50
2023-05-04T22:30:47.586Z,7.47
2023-05-04T22:33:15.702Z,7.13
2023-05-04T22:35:43.921Z,6.40
2023-05-04T22:38:14.443Z,6.90
2023-05-04T22:40:43.547Z,7.03
2023-05-04T22:43:11.446Z,7.90
2023-05-04T22:45:40.162Z,7.03
2023-05-04T22:48:08.123Z,7.47
2023-05-04T22:50:35.938Z,7.47
2023-05-04T22:53:03.852Z,7.20
2023-05-04T22:55:33.237Z,6.97
2023-05-04T22:58:01.191Z,6.80
2023-05-04T23:00:29.953Z,7.30
2023-05-04T23:02:57.922Z,8.23
2023-05-04T23:05:26.829Z,8.33
2023-05-04T23:07:54.816Z,7.80
2023-05-04T23:10:22.922Z,7.40
2023-05-04T23:12:52.225Z,7.27
2023-05-04T23:15:20.527Z,7.67
2023-05-04T23:17:48.420Z,6.80
2023-05-04T23:20:16.860Z,7.07
2023-05-04T23:22:44.730Z,7.67
2023-05-04T23:25:12.582Z,7.50
2023-05-04T23:27:40.592Z,7.47
2023-05-04T23:30:10.676Z,7.80
2023-05-04T23:32:38.854Z,7.30
2023-05-04T23:35:07.897Z,7.70
2023-05-04T23:37:35.851Z,7.47
2023-05-04T23:40:03.759Z,8.00
2023-05-04T23:42:31.645Z,7.23
2023-05-04T23:44:59.521Z,6.70
2023-05-04T23:47:28.787Z,7.13
2023-05-04T23:49:56.942Z,7.43
2023-05-04T23:52:24.848Z,7.20
2023-05-04T23:54:54.428Z,7.27
2023-05-04T23:57:22.402Z,7.03
2023-05-04T23:59:50.225Z,7.30
